createdAt,value
2019-01-05T00:01:09.628Z,102826.98
2019-01-05T00:03:57.680Z,102829.53
2019-01-05T00:06:45.224Z,102827.27
2019-01-05T00:09:44.419Z,102828.12
2019-01-05T00:12:47.264Z,102818.93
2019-01-05T00:15:34.924Z,102807.57
2019-01-05T00:18:37.152Z,102809.19
2019-01-05T00:21:39.843Z,102813.05
2019-01-05T00:24:29.047Z,102816.91
2019-01-05T00:27:16.772Z,102809.47
2019-01-05T00:30:04.954Z,102804.27
2019-01-05T00:33:00.812Z,102797.31
2019-01-05T00:36:04.778Z,102789.49
2019-01-05T00:39:05.903Z,102792.52
2019-01-05T00:42:01.608Z,102792.90
2019-01-05T00:44:50.885Z,102783.70
2019-01-05T00:47:58.055Z,102799.82
2019-01-05T00:51:04.924Z,102798.10
2019-01-05T00:54:04.067Z,102795.48
2019-01-05T00:56:51.454Z,102797.62
2019-01-05T00:59:41.157Z,102799.23
2019-01-05T01:02:33.244Z,102798.34
2019-01-05T01:05:28.079Z,102798.71
2019-01-05T01:08:16.021Z,102790.83
2019-01-05T01:10:55.530Z,102790.41
2019-01-05T01:13:43.430Z,102799.58
2019-01-05T01:16:31.656Z,102805.22
2019-01-05T01:19:21.120Z,102800.81
2019-01-05T01:22:25.725Z,102803.50
2019-01-05T01:25:19.503Z,102804.81
2019-01-05T01:28:14.771Z,102804.33
2019-01-05T01:31:15.713Z,102818.27
2019-01-05T01:34:02.544Z,102800.47
2019-01-05T01:36:50.625Z,102803.98
2019-01-05T01:40:00.220Z,102809.63
2019-01-05T01:42:48.108Z,102798.34
2019-01-05T01:45:51.927Z,102804.88
2019-01-05T01:48:41.439Z,102806.78
2019-01-05T01:51:30.948Z,102801.03
2019-01-05T01:54:29.476Z,102799.00
2019-01-05T01:57:26.161Z,102799.82
2019-01-05T02:00:27.679Z,102794.62
2019-01-05T02:03:17.404Z,102787.19
2019-01-05T02:06:07.342Z,102795.89
2019-01-05T02:09:01.810Z,102784.16
2019-01-05T02:12:11.705Z,102790.22
2019-01-05T02:15:15.960Z,102788.49
2019-01-05T02:18:21.500Z,102777.61
2019-01-05T02:21:43.831Z,102773.65
2019-01-05T02:25:03.080Z,102773.72
2019-01-05T02:28:32.533Z,102760.56
2019-01-05T02:32:11.990Z,102756.60
2019-01-05T02:35:17.388Z,102748.75
2019-01-05T02:38:49.252Z,102748.30
2019-01-05T02:42:28.330Z,102748.30
2019-01-05T02:45:52.760Z,102753.88
2019-01-05T02:49:29.595Z,102735.97
2019-01-05T02:53:02.860Z,102725.53
2019-01-05T02:56:41.112Z,102722.13
2019-01-05T03:00:00.833Z,102725.20
2019-01-05T03:03:30.302Z,102716.83
2019-01-05T03:07:04.859Z,102706.73
2019-01-05T03:10:35.331Z,102701.91
2019-01-05T03:13:52.061Z,102700.52
2019-01-05T03:17:16.895Z,102694.87
2019-01-05T03:20:49.934Z,102694.05
2019-01-05T03:24:12.329Z,102696.59
2019-01-05T03:27:50.319Z,102687.51
2019-01-05T03:31:11.162Z,102685.34
2019-01-05T03:34:37.458Z,102689.23
2019-01-05T03:38:11.058Z,102683.13
2019-01-05T03:41:32.385Z,102684.41
2019-01-05T03:45:04.944Z,102667.35
2019-01-05T03:48:29.611Z,102654.75
2019-01-05T03:52:12.987Z,102645.55
2019-01-05T03:55:54.310Z,102645.14
2019-01-05T03:59:02.039Z,102623.75
2019-01-05T04:02:15.787Z,102622.89
2019-01-05T04:05:36.420Z,102622.85
2019-01-05T04:09:14.439Z,102625.84
2019-01-05T04:12:48.249Z,102621.05
2019-01-05T04:16:36.687Z,102617.13
2019-01-05T04:20:13.566Z,102613.98
2019-01-05T04:23:25.491Z,102618.23
2019-01-05T04:27:00.874Z,102625.72
2019-01-05T04:30:40.483Z,102604.70
2019-01-05T04:34:11.375Z,102590.71
2019-01-05T04:37:42.196Z,102581.05
2019-01-05T04:40:54.528Z,102582.77
2019-01-05T04:44:25.167Z,102574.02
2019-01-05T04:47:39.458Z,102566.08
2019-01-05T04:50:57.626Z,102577.45
2019-01-05T04:54:15.897Z,102582.60
2019-01-05T04:58:06.089Z,102572.91
2019-01-05T05:01:29.842Z,102567.59
2019-01-05T05:04:50.445Z,102565.78
2019-01-05T05:08:12.375Z,102556.98
2019-01-05T05:11:40.799Z,102547.36
2019-01-05T05:15:03.868Z,102550.75
2019-01-05T05:18:39.681Z,102548.94
2019-01-05T05:22:19.162Z,102551.03
2019-01-05T05:25:43.677Z,102546.20
2019-01-05T05:29:14.572Z,102538.30
2019-01-05T05:32:55.764Z,102537.34
2019-01-05T05:36:26.081Z,102531.66
2019-01-05T05:40:09.819Z,102534.64
2019-01-05T05:43:49.664Z,102531.47
2019-01-05T05:47:16.649Z,102534.05
2019-01-05T05:50:56.963Z,102536.62
2019-01-05T05:54:15.246Z,102536.99
2019-01-05T05:58:02.206Z,102540.38
2019-01-05T06:01:50.596Z,102542.50
2019-01-05T06:05:08.462Z,102539.38
2019-01-05T06:08:34.081Z,102551.58
2019-01-05T06:12:04.703Z,102535.36
2019-01-05T06:15:32.489Z,102535.64
2019-01-05T06:19:00.231Z,102535.14
2019-01-05T06:22:25.909Z,102531.20
2019-01-05T06:25:50.986Z,102531.12
2019-01-05T06:29:19.218Z,102531.97
2019-01-05T06:32:59.693Z,102533.23
2019-01-05T06:36:33.210Z,102524.87
2019-01-05T06:40:10.353Z,102523.06
2019-01-05T06:43:48.308Z,102528.58
2019-01-05T06:47:12.329Z,102526.36
2019-01-05T06:51:02.971Z,102540.59
2019-01-05T06:54:28.852Z,102532.13
2019-01-05T06:57:48.642Z,102539.36
2019-01-05T07:01:20.851Z,102536.64
2019-01-05T07:04:26.388Z,102540.42
2019-01-05T07:07:57.271Z,102538.66
2019-01-05T07:11:25.112Z,102539.83
2019-01-05T07:14:45.574Z,102552.48
2019-01-05T07:18:34.520Z,102551.17
2019-01-05T07:22:13.315Z,102548.06
2019-01-05T07:25:47.558Z,102555.92
2019-01-05T07:29:22.734Z,102554.97
2019-01-05T07:32:58.330Z,102562.34
2019-01-05T07:36:26.576Z,102565.01
2019-01-05T07:40:12.468Z,102571.92
2019-01-05T07:43:42.810Z,102567.17
2019-01-05T07:47:23.772Z,102569.39
2019-01-05T07:51:10.467Z,102562.84
2019-01-05T07:54:41.119Z,102560.22
2019-01-05T07:58:05.100Z,102560.67
2019-01-05T08:01:33.692Z,102564.60
2019-01-05T08:04:48.204Z,102571.20
2019-01-05T08:08:25.643Z,102590.83
2019-01-05T08:11:49.627Z,102573.78
2019-01-05T08:15:14.259Z,102576.81
2019-01-05T08:18:42.710Z,102580.29
2019-01-05T08:22:36.416Z,102575.50
2019-01-05T08:26:11.064Z,102574.19
2019-01-05T08:29:31.839Z,102572.42
2019-01-05T08:33:16.299Z,102570.20
2019-01-05T08:36:38.167Z,102575.05
2019-01-05T08:40:20.439Z,102571.52
2019-01-05T08:44:05.005Z,102567.58
2019-01-05T08:47:32.164Z,102574.04
2019-01-05T08:51:14.090Z,102579.28
2019-01-05T08:54:46.900Z,102581.00
2019-01-05T08:58:12.695Z,102577.02
2019-01-05T09:01:47.254Z,102573.94
2019-01-05T09:05:07.600Z,102577.88
2019-01-05T09:08:39.992Z,102579.13
2019-01-05T09:12:39.556Z,102586.09
2019-01-05T09:16:06.336Z,102586.55
2019-01-05T09:19:59.269Z,102591.75
2019-01-05T09:23:22.166Z,102592.20
2019-01-05T09:27:01.399Z,102590.44
2019-01-05T09:30:35.940Z,102584.73
2019-01-05T09:34:00.433Z,102591.66
2019-01-05T09:37:25.208Z,102587.36
2019-01-05T09:41:22.025Z,102578.55
2019-01-05T09:44:50.562Z,102579.86
2019-01-05T09:48:13.735Z,102588.13
2019-01-05T09:51:27.503Z,102588.13
2019-01-05T09:55:00.158Z,102592.98
2019-01-05T09:58:31.212Z,102584.20
2019-01-05T10:02:02.682Z,102580.67
2019-01-05T10:05:23.810Z,102587.63
2019-01-05T10:08:51.146Z,102574.41
2019-01-05T10:12:10.163Z,102570.98
2019-01-05T10:15:28.747Z,102576.64
2019-01-05T10:19:03.294Z,102568.36
2019-01-05T10:22:09.696Z,102574.11
2019-01-05T10:25:52.921Z,102565.73
2019-01-05T10:29:16.195Z,102575.42
2019-01-05T10:32:51.020Z,102561.00
2019-01-05T10:36:29.539Z,102569.67
2019-01-05T10:39:52.057Z,102561.80
2019-01-05T10:43:23.223Z,102555.70
2019-01-05T10:46:48.296Z,102556.05
2019-01-05T10:50:13.246Z,102554.34
2019-01-05T10:53:56.496Z,102553.38
2019-01-05T10:57:28.848Z,102544.95
2019-01-05T11:01:03.835Z,102544.50
2019-01-05T11:04:23.157Z,102541.82
2019-01-05T11:07:45.428Z,102538.80
2019-01-05T11:11:03.758Z,102549.16
2019-01-05T11:14:35.977Z,102535.98
2019-01-05T11:18:06.947Z,102537.34
2019-01-05T11:21:40.775Z,102534.00
2019-01-05T11:25:25.784Z,102527.39
2019-01-05T11:28:58.323Z,102527.39
2019-01-05T11:32:12.181Z,102523.91
2019-01-05T11:35:52.834Z,102531.33
2019-01-05T11:39:38.861Z,102526.48
2019-01-05T11:42:57.533Z,102529.48
2019-01-05T11:46:16.050Z,102526.85
2019-01-05T11:49:34.840Z,102530.28
2019-01-05T11:53:10.027Z,102530.73
2019-01-05T11:56:27.944Z,102523.27
2019-01-05T11:59:55.922Z,102515.84
2019-01-05T12:03:14.079Z,102521.50
2019-01-05T12:06:48.624Z,102510.09
2019-01-05T12:10:47.146Z,102507.06
2019-01-05T12:14:27.083Z,102503.64
2019-01-05T12:17:47.410Z,102507.58
2019-01-05T12:21:12.319Z,102501.42
2019-01-05T12:25:02.843Z,102508.44
2019-01-05T12:28:30.043Z,102506.56
2019-01-05T12:32:06.791Z,102504.80
2019-01-05T12:35:38.523Z,102504.84
2019-01-05T12:39:10.318Z,102511.70
2019-01-05T12:42:51.341Z,102506.51
2019-01-05T12:49:57.042Z,102493.80
2019-01-05T12:53:42.070Z,102497.67
2019-01-05T12:57:15.727Z,102494.25
2019-01-05T13:00:50.580Z,102507.26
2019-01-05T13:04:20.819Z,102501.10
2019-01-05T13:08:17.057Z,102501.95
2019-01-05T13:11:31.301Z,102505.49
2019-01-05T13:14:49.211Z,102513.31
2019-01-05T13:18:29.480Z,102512.51
2019-01-05T13:22:06.472Z,102502.87
2019-01-05T13:25:22.380Z,102506.45
2019-01-05T13:28:47.501Z,102514.33
2019-01-05T13:32:22.411Z,102516.15
2019-01-05T13:36:00.197Z,102506.61
2019-01-05T13:39:57.583Z,102513.63
2019-01-05T13:43:29.356Z,102507.06
2019-01-05T13:46:51.296Z,102512.67
2019-01-05T13:50:21.361Z,102521.91
2019-01-05T13:53:46.287Z,102526.75
2019-01-05T13:56:40.599Z,102533.77
2019-01-05T13:59:33.427Z,102535.08
2019-01-05T14:02:21.233Z,102532.85
2019-01-05T14:05:09.032Z,102528.56
2019-01-05T14:08:01.362Z,102546.02
2019-01-05T14:10:51.774Z,102538.66
2019-01-05T14:13:39.635Z,102540.77
2019-01-05T14:16:27.219Z,102542.49
2019-01-05T14:19:24.453Z,102533.31
2019-01-05T14:22:12.403Z,102546.02
2019-01-05T14:25:09.433Z,102550.36
2019-01-05T14:27:58.589Z,102564.44
2019-01-05T14:30:47.866Z,102568.33
2019-01-05T14:33:48.720Z,102563.98
2019-01-05T14:36:52.735Z,102561.81
2019-01-05T14:40:00.364Z,102568.83
2019-01-05T14:42:43.882Z,102572.27
2019-01-05T14:45:42.005Z,102571.99
2019-01-05T14:48:34.313Z,102575.02
2019-01-05T14:51:22.123Z,102572.45
2019-01-05T14:54:16.956Z,102578.15
2019-01-05T14:57:18.309Z,102579.33
2019-01-05T15:00:10.007Z,102574.94
2019-01-05T15:03:09.180Z,102580.27
2019-01-05T15:06:10.894Z,102574.21
2019-01-05T15:08:59.801Z,102585.62
2019-01-05T15:14:30.183Z,102580.42
2019-01-05T15:17:21.871Z,102577.84
2019-01-05T15:20:09.805Z,102577.84
2019-01-05T15:23:08.441Z,102584.00
2019-01-05T15:25:56.138Z,102590.97
2019-01-05T15:28:44.041Z,102584.05
2019-01-05T15:31:31.652Z,102602.87
2019-01-05T15:34:19.450Z,102599.48
2019-01-05T15:37:07.264Z,102592.06
2019-01-05T15:39:55.265Z,102599.16
2019-01-05T15:42:44.222Z,102602.23
2019-01-05T15:45:42.170Z,102596.14
2019-01-05T15:48:35.177Z,102604.86
2019-01-05T15:51:23.221Z,102600.98
2019-01-05T15:54:22.546Z,102608.39
2019-01-05T15:57:10.595Z,102607.94
2019-01-05T15:59:54.844Z,102603.47
2019-01-05T16:02:42.603Z,102602.70
2019-01-05T16:05:30.335Z,102607.98
2019-01-05T16:08:26.849Z,102605.72
2019-01-05T16:11:14.651Z,102601.38
2019-01-05T16:14:08.545Z,102610.03
2019-01-05T16:16:59.768Z,102610.11
2019-01-05T16:19:52.307Z,102605.72
2019-01-05T16:22:41.111Z,102610.11
2019-01-05T16:25:39.090Z,102603.60
2019-01-05T16:28:27.952Z,102611.11
2019-01-05T16:31:17.109Z,102611.97
2019-01-05T16:34:04.938Z,102620.24
2019-01-05T16:36:56.083Z,102617.63
2019-01-05T16:39:57.572Z,102622.82
2019-01-05T16:42:45.209Z,102617.52
2019-01-05T16:45:43.237Z,102616.36
2019-01-05T16:48:31.002Z,102621.51
2019-01-05T16:51:20.160Z,102614.09
2019-01-05T16:54:19.349Z,102617.22
2019-01-05T16:57:27.396Z,102617.58
2019-01-05T17:00:15.186Z,102624.98
2019-01-05T17:03:02.445Z,102622.16
2019-01-05T17:05:51.806Z,102620.44
2019-01-05T17:08:46.937Z,102625.23
2019-01-05T17:11:41.918Z,102615.19
2019-01-05T17:14:29.960Z,102619.98
2019-01-05T17:17:18.480Z,102618.67
2019-01-05T17:20:06.262Z,102618.31
2019-01-05T17:23:07.607Z,102629.21
2019-01-05T17:26:09.062Z,102624.11
2019-01-05T17:28:56.778Z,102621.84
2019-01-05T17:31:57.751Z,102624.06
2019-01-05T17:34:48.288Z,102626.69
2019-01-05T17:37:36.501Z,102624.97
2019-01-05T17:40:24.509Z,102630.75
2019-01-05T17:43:23.814Z,102630.75
2019-01-05T17:46:12.736Z,102637.40
2019-01-05T17:49:02.762Z,102626.95
2019-01-05T17:52:01.449Z,102626.05
2019-01-05T17:55:02.352Z,102630.84
2019-01-05T17:57:51.226Z,102630.34
2019-01-05T18:00:38.946Z,102623.47
2019-01-05T18:03:33.767Z,102622.66
2019-01-05T18:06:19.416Z,102619.14
2019-01-05T18:09:07.014Z,102624.33
2019-01-05T18:11:54.596Z,102627.00
2019-01-05T18:14:46.753Z,102629.22
2019-01-05T18:17:47.898Z,102630.03
2019-01-05T18:20:39.797Z,102621.26
2019-01-05T18:23:35.237Z,102627.00
2019-01-05T18:26:27.479Z,102618.23
2019-01-05T18:29:15.194Z,102622.57
2019-01-05T18:32:22.900Z,102638.70
2019-01-05T18:35:21.005Z,102628.72
2019-01-05T18:38:08.512Z,102629.67
2019-01-05T18:40:59.442Z,102630.58
2019-01-05T18:43:48.357Z,102636.68
2019-01-05T18:46:40.469Z,102642.33
2019-01-05T18:49:38.628Z,102630.53
2019-01-05T18:52:33.159Z,102630.53
2019-01-05T18:55:20.550Z,102626.19
2019-01-05T18:58:17.848Z,102623.47
2019-01-05T19:01:06.065Z,102625.64
2019-01-05T19:03:54.259Z,102625.69
2019-01-05T19:06:42.085Z,102618.23
2019-01-05T19:09:30.225Z,102623.47
2019-01-05T19:12:18.861Z,102618.73
2019-01-05T19:15:16.778Z,102623.57
2019-01-05T19:18:03.184Z,102626.19
2019-01-05T19:20:51.185Z,102625.28
2019-01-05T19:23:43.868Z,102623.97
2019-01-05T19:26:31.444Z,102620.95
2019-01-05T19:29:19.720Z,102631.39
2019-01-05T19:32:08.665Z,102623.93
2019-01-05T19:34:56.587Z,102626.55
2019-01-05T19:37:45.772Z,102631.34
2019-01-05T19:40:41.503Z,102630.03
2019-01-05T19:43:30.565Z,102630.44
2019-01-05T19:46:13.530Z,102633.96
2019-01-05T19:49:09.572Z,102631.34
2019-01-05T19:52:02.596Z,102639.20
2019-01-05T19:54:50.563Z,102641.42
2019-01-05T19:57:54.792Z,102650.60
2019-01-05T20:00:56.354Z,102647.58
2019-01-05T20:03:44.207Z,102649.79
2019-01-05T20:06:39.418Z,102648.88
2019-01-05T20:09:28.363Z,102654.17
2019-01-05T20:12:23.977Z,102648.88
2019-01-05T20:15:18.830Z,102645.36
2019-01-05T20:18:06.356Z,102644.91
2019-01-05T20:20:50.188Z,102659.28
2019-01-05T20:23:38.132Z,102661.45
2019-01-05T20:26:23.834Z,102651.37
2019-01-05T20:29:13.604Z,102649.29
2019-01-05T20:32:01.528Z,102654.13
2019-01-05T20:34:49.391Z,102657.20
2019-01-05T20:37:47.744Z,102654.22
2019-01-05T20:40:43.225Z,102643.83
2019-01-05T20:43:39.864Z,102659.96
2019-01-05T20:46:27.579Z,102660.78
2019-01-05T20:49:15.736Z,102660.28
2019-01-05T20:52:23.855Z,102666.42
2019-01-05T20:55:11.345Z,102670.86
2019-01-05T20:58:07.883Z,102673.48
2019-01-05T21:00:52.678Z,102669.59
2019-01-05T21:03:53.814Z,102670.00
2019-01-05T21:06:42.012Z,102668.64
2019-01-05T21:09:33.968Z,102664.30
2019-01-05T21:12:21.738Z,102665.61
2019-01-05T21:15:10.747Z,102667.78
2019-01-05T21:17:59.681Z,102666.92
2019-01-05T21:21:00.782Z,102668.23
2019-01-05T21:23:48.309Z,102668.69
2019-01-05T21:26:40.827Z,102667.33
2019-01-05T21:29:35.893Z,102664.25
2019-01-05T21:32:30.895Z,102661.27
2019-01-05T21:35:21.632Z,102649.38
2019-01-05T21:38:19.591Z,102650.28
2019-01-05T21:41:17.348Z,102641.97
2019-01-05T21:44:05.159Z,102638.48
2019-01-05T21:47:09.544Z,102640.75
2019-01-05T21:49:57.322Z,102629.94
2019-01-05T21:53:01.451Z,102628.62
2019-01-05T21:55:50.465Z,102625.47
2019-01-05T21:58:43.133Z,102643.78
2019-01-05T22:01:31.873Z,102639.89
2019-01-05T22:04:19.712Z,102640.42
2019-01-05T22:07:13.443Z,102645.50
2019-01-05T22:10:02.318Z,102659.06
2019-01-05T22:12:51.484Z,102653.45
2019-01-05T22:15:39.348Z,102646.85
2019-01-05T22:18:27.018Z,102661.68
2019-01-05T22:21:16.467Z,102650.73
2019-01-05T22:24:23.875Z,102660.37
2019-01-05T22:27:11.691Z,102652.91
2019-01-05T22:29:52.520Z,102653.31
2019-01-05T22:32:59.917Z,102643.73
2019-01-05T22:35:58.150Z,102650.28
2019-01-05T22:38:43.779Z,102642.88
2019-01-05T22:41:31.733Z,102639.34
2019-01-05T22:44:19.367Z,102645.05
2019-01-05T22:47:11.239Z,102651.14
2019-01-05T22:49:58.759Z,102645.95
2019-01-05T22:53:00.068Z,102650.28
2019-01-05T22:55:58.585Z,102654.27
2019-01-05T22:58:56.649Z,102650.78
2019-01-05T23:01:45.473Z,102649.38
2019-01-05T23:04:37.358Z,102648.08
2019-01-05T23:07:44.724Z,102642.33
2019-01-05T23:10:42.582Z,102642.73
2019-01-05T23:13:34.268Z,102640.97
2019-01-05T23:16:23.192Z,102647.88
2019-01-05T23:19:09.012Z,102643.23
2019-01-05T23:22:04.014Z,102640.11
2019-01-05T23:24:49.966Z,102646.22
2019-01-05T23:27:37.966Z,102653.72
2019-01-05T23:30:26.405Z,102659.47
2019-01-05T23:33:14.175Z,102651.59
2019-01-05T23:36:21.443Z,102658.16
2019-01-05T23:39:29.062Z,102656.03
2019-01-05T23:42:15.017Z,102656.03
2019-01-05T23:45:07.959Z,102656.03
2019-01-05T23:48:09.557Z,102667.42
2019-01-05T23:51:10.510Z,102662.25
2019-01-05T23:53:57.900Z,102660.09
2019-01-05T23:56:46.679Z,102664.02
2019-01-05T23:59:42.774Z,102663.11
